^^
Saratoga-Weather Station Historical Data
Daily Summary for April 22, 2020 Units:  English    Metric   Both
Daily Weekly Monthly Yearly Custom
  High: Low: Average:
Temperature: 57.2 °F 51.6 °F 55.2 °F
Dew Point: 55.2 °F 50.5 °F 53.8 °F
Humidity: 96% 92% 95%
Wind Speed: 10.1mph 0mph 2.7mph
Wind Gust: 18mph - -
Wind- - WSW
Pressure: 30 in 29.9 in -
Precipitation: 0.43 in    
Historical Graphs
 
 
Tabular Data for April 22, 2020
Time Temperature Dew Point Pressure Wind Wind Speed Wind Gust Humidity Rainfall Rate (Hourly) solar
00:03 51.6 °F 50.5 °F 30 in WSW 2 mph 9 mph 96% 0.02 in 0 W/m2
00:08 51.6 °F 50.5 °F 29.9 in WNW 2.9 mph 4 mph 96% 0.02 in 0 W/m2
00:13 51.6 °F 50.5 °F 30 in SW 2.9 mph 5 mph 96% 0.02 in 0 W/m2
00:18 52 °F 50.9 °F 30 in NNW 8.9 mph 9 mph 96% 0.02 in 0 W/m2
00:23 52.2 °F 51.1 °F 30 in West 6 mph 9 mph 96% 0.02 in 0 W/m2
00:28 52.3 °F 51.3 °F 30 in West 2 mph 5 mph 96% 0.02 in 0 W/m2
00:33 52.3 °F 51.3 °F 30 in NE 0.9 mph 5 mph 96% 0.02 in 0 W/m2
00:38 52.5 °F 51.4 °F 30 in West 2.9 mph 5 mph 96% 0.01 in 0 W/m2
00:55 53.1 °F 51.6 °F 30 in SSE 2 mph 5 mph 95% 0.01 in 0 W/m2
01:00 53.1 °F 51.6 °F 30 in NW 4 mph 6 mph 95% 0.01 in 0 W/m2
01:05 53.1 °F 51.6 °F 30 in WNW 2 mph 7 mph 95% 0.01 in 0 W/m2
01:10 53.1 °F 51.6 °F 30 in NNW 2.9 mph 12 mph 95% 0.02 in 0 W/m2
01:15 53.2 °F 51.8 °F 30 in WSW 2.9 mph 16 mph 95% 0.02 in 0 W/m2
01:20 53.2 °F 51.8 °F 30 in NNW 0.9 mph 7 mph 95% 0.02 in 0 W/m2
01:25 53.2 °F 51.8 °F 30 in SSE 6 mph 16 mph 95% 0.03 in 0 W/m2
01:30 53.2 °F 51.8 °F 30 in NE 2 mph 5 mph 95% 0.03 in 0 W/m2
01:35 53.2 °F 51.8 °F 29.9 in SW 2 mph 12 mph 95% 0.04 in 0 W/m2
01:40 53.2 °F 51.8 °F 30 in WNW 2 mph 8 mph 95% 0.04 in 0 W/m2
01:45 53.4 °F 52 °F 30 in West 6 mph 9 mph 95% 0.04 in 0 W/m2
01:50 53.8 °F 52.3 °F 30 in NW 0.9 mph 14 mph 95% 0.04 in 0 W/m2
01:55 53.8 °F 52.3 °F 30 in WSW 8.1 mph 14 mph 95% 0.04 in 0 W/m2
02:00 53.8 °F 52.3 °F 30 in NNE 2.9 mph 5 mph 95% 0.04 in 0 W/m2
02:05 53.8 °F 52.3 °F 30 in West 2.9 mph 9 mph 95% 0.04 in 0 W/m2
02:10 54 °F 52.5 °F 30 in WSW 10.1 mph 12 mph 95% 0.03 in 0 W/m2
02:15 54 °F 52.5 °F 30 in NNE 0.9 mph 11 mph 95% 0.03 in 0 W/m2
02:20 54 °F 52.5 °F 30 in ESE 2 mph 2 mph 95% 0.02 in 0 W/m2
02:25 54 °F 52.5 °F 30 in East 4 mph 11 mph 95% 0.02 in 0 W/m2
02:30 54 °F 52.5 °F 30 in North 2 mph 3 mph 95% 0.02 in 0 W/m2
02:35 54 °F 52.5 °F 30 in South 2.9 mph 11 mph 95% 0.02 in 0 W/m2
02:40 54 °F 52.5 °F 30 in WNW 2.9 mph 12 mph 95% 0.02 in 0 W/m2
02:45 54 °F 52.5 °F 30 in SW 2.9 mph 8 mph 95% 0.02 in 0 W/m2
02:50 54 °F 52.5 °F 30 in West 4 mph 11 mph 95% 0.02 in 0 W/m2
02:55 54 °F 52.5 °F 30 in SW 4.9 mph 10 mph 95% 0.02 in 0 W/m2
03:00 54 °F 52.5 °F 30 in SW 4 mph 4 mph 95% 0.02 in 0 W/m2
03:05 54 °F 52.5 °F 30 in SSW 2.9 mph 11 mph 95% 0.02 in 0 W/m2
03:10 54 °F 52.5 °F 30 in WNW 4.9 mph 11 mph 95% 0.02 in 0 W/m2
03:15 54 °F 52.5 °F 30 in NNW 2.9 mph 7 mph 95% 0.02 in 0 W/m2
03:20 54 °F 52.5 °F 30 in WNW 4 mph 8 mph 95% 0.02 in 0 W/m2
03:25 54 °F 52.5 °F 30 in West 2.9 mph 8 mph 95% 0.02 in 0 W/m2
03:30 54.1 °F 52.7 °F 30 in North 0.9 mph 6 mph 95% 0.02 in 0 W/m2
03:35 54.1 °F 52.7 °F 30 in NW 4 mph 4 mph 95% 0.02 in 0 W/m2
03:40 54.1 °F 52.7 °F 30 in East 2.9 mph 12 mph 95% 0.02 in 0 W/m2
03:45 54.1 °F 52.7 °F 30 in West 2 mph 9 mph 95% 0.02 in 0 W/m2
03:51 54.1 °F 52.7 °F 30 in WSW 2.9 mph 12 mph 95% 0.02 in 0 W/m2
03:56 54.1 °F 52.7 °F 30 in NW 0.9 mph 8 mph 95% 0.02 in 0 W/m2
04:01 54.1 °F 52.7 °F 30 in WSW 6.9 mph 11 mph 95% 0.02 in 0 W/m2
04:06 54.1 °F 52.7 °F 30 in West 2 mph 9 mph 95% 0.02 in 0 W/m2
04:11 54.1 °F 52.7 °F 30 in South 0.9 mph 15 mph 95% 0.02 in 0 W/m2
04:16 54.1 °F 52.7 °F 30 in SW 2 mph 8 mph 95% 0.02 in 0 W/m2
04:21 54.1 °F 52.7 °F 30 in SW 4.9 mph 18 mph 95% 0.03 in 0 W/m2
04:26 54.1 °F 52.7 °F 30 in NW 2 mph 5 mph 95% 0.02 in 0 W/m2
04:31 54.1 °F 52.7 °F 30 in West 6 mph 10 mph 95% 0.02 in 0 W/m2
04:36 54.1 °F 52.7 °F 30 in North 2 mph 8 mph 95% 0.02 in 0 W/m2
04:41 54.1 °F 52.7 °F 30 in SSE 2.9 mph 7 mph 95% 0.03 in 0 W/m2
04:46 54.1 °F 52.7 °F 30 in NW 2.9 mph 8 mph 95% 0.03 in 0 W/m2
04:51 54.3 °F 52.9 °F 30 in NW 2.9 mph 11 mph 95% 0.03 in 0 W/m2
04:56 54.3 °F 52.9 °F 30 in West 2 mph 9 mph 95% 0.02 in 0 W/m2
05:01 54.3 °F 52.9 °F 30 in West 2 mph 5 mph 95% 0.02 in 0 W/m2
05:06 54.3 °F 52.9 °F 30 in WSW 2.9 mph 11 mph 95% 0.03 in 0 W/m2
05:11 54.3 °F 52.9 °F 30 in WNW 8.1 mph 10 mph 95% 0.04 in 0 W/m2
05:16 54.5 °F 53.1 °F 30 in WNW 2 mph 11 mph 95% 0.04 in 0 W/m2
05:21 54.5 °F 53.1 °F 30 in South 2 mph 7 mph 95% 0.03 in 0 W/m2
05:26 54.5 °F 53.1 °F 30 in NW 4 mph 11 mph 95% 0.04 in 0 W/m2
05:31 54.7 °F 53.2 °F 30 in NNW 2 mph 5 mph 95% 0.04 in 0 W/m2
05:36 54.7 °F 53.2 °F 30 in West 2 mph 13 mph 95% 0.06 in 0 W/m2
05:56 54.5 °F 53.1 °F 30 in South 6 mph 10 mph 95% 0.07 in 0 W/m2
06:01 54.7 °F 53.2 °F 30 in WNW 8.1 mph 8 mph 95% 0.06 in 0 W/m2
06:06 54.7 °F 53.2 °F 30 in NW 0.9 mph 7 mph 95% 0.06 in 0 W/m2
06:11 54.7 °F 53.2 °F 30 in WNW 8.1 mph 9 mph 95% 0.06 in 0 W/m2
06:16 54.7 °F 53.2 °F 30 in WSW 2.9 mph 7 mph 95% 0.07 in 0 W/m2
06:21 54.7 °F 53.2 °F 30 in West 2 mph 12 mph 95% 0.08 in 0 W/m2
06:26 54.7 °F 53.2 °F 30 in WSW 8.9 mph 11 mph 95% 0.07 in 0 W/m2
06:46 54.7 °F 53.2 °F 30 in NNW 2 mph 6 mph 95% 0.04 in 0 W/m2
06:51 54.7 °F 53.2 °F 30 in NNW 2 mph 8 mph 95% 0.05 in 0 W/m2
06:56 54.7 °F 53.2 °F 30 in North 2.9 mph 9 mph 95% 0.05 in 0 W/m2
07:01 54.7 °F 53.2 °F 30 in NNW 2.9 mph 9 mph 95% 0.05 in 0 W/m2
07:06 54.7 °F 53.2 °F 30 in North 2.9 mph 9 mph 95% 0.05 in 0 W/m2
07:25 54.7 °F 53.2 °F 30 in North 4 mph 6 mph 95% 0.02 in 0 W/m2
07:30 54.9 °F 53.4 °F 30 in WSW 10.1 mph 10 mph 95% 0.03 in 0 W/m2
07:35 54.9 °F 53.4 °F 30 in WNW 8.1 mph 10 mph 95% 0.03 in 0 W/m2
07:40 54.9 °F 53.4 °F 30 in SSW 4 mph 9 mph 95% 0.03 in 0 W/m2
07:45 54.9 °F 53.4 °F 30 in SSE 0.9 mph 4 mph 95% 0.03 in 0 W/m2
07:50 54.9 °F 53.4 °F 30 in NW 4 mph 6 mph 95% 0.02 in 0 W/m2
07:55 54.9 °F 53.4 °F 30 in SW 4 mph 9 mph 95% 0.02 in 0 W/m2
08:00 54.9 °F 53.4 °F 30 in North 2 mph 8 mph 95% 0.02 in 0 W/m2
08:05 54.9 °F 53.4 °F 30 in NNW 2.9 mph 8 mph 95% 0.01 in 0 W/m2
08:10 54.9 °F 53.4 °F 30 in NW 4 mph 7 mph 95% 0.02 in 0 W/m2
08:15 54.9 °F 53.4 °F 30 in NW 2.9 mph 6 mph 95% 0.02 in 0 W/m2
08:20 54.9 °F 53.4 °F 30 in West 2 mph 10 mph 95% 0.02 in 0 W/m2
08:25 54.9 °F 53.4 °F 30 in NNW 4 mph 9 mph 95% 0.02 in 0 W/m2
08:30 54.7 °F 53.2 °F 30 in WNW 2 mph 10 mph 95% 0.01 in 0 W/m2
08:35 54.7 °F 53.2 °F 30 in WNW 2.9 mph 6 mph 95% 0.01 in 0 W/m2
08:40 54.9 °F 53.4 °F 30 in Calm   9 mph 95% 0.01 in 5 W/m2
08:45 54.9 °F 53.4 °F 30 in NNW 2 mph 10 mph 95% 0.01 in 11 W/m2
08:50 54.9 °F 53.4 °F 30 in ESE 4 mph 8 mph 95% 0.01 in 12 W/m2
08:55 54.9 °F 53.4 °F 30 in WSW 8.1 mph 13 mph 95% 0.01 in 12 W/m2
09:00 54.9 °F 53.4 °F 30 in West 2 mph 4 mph 95% 0.01 in 12 W/m2
09:05 54.9 °F 53.4 °F 30 in North 0.9 mph 13 mph 95% 0.01 in 12 W/m2
09:10 54.9 °F 53.4 °F 30 in WNW 6.9 mph 8 mph 95% 0 in 12 W/m2
09:15 54.9 °F 53.4 °F 30 in NW 4 mph 5 mph 95% 0.01 in 14 W/m2
09:20 54.9 °F 53.4 °F 30 in WSW 4.9 mph 7 mph 95% 0.01 in 16 W/m2
09:25 54.9 °F 53.4 °F 30 in West 0.9 mph 9 mph 95% 0.01 in 19 W/m2
09:46 54.9 °F 53.4 °F 30 in WNW 0.9 mph 8 mph 95% 0.01 in 26 W/m2
09:51 54.9 °F 53.4 °F 30 in WNW 4.9 mph 9 mph 95% 0.01 in 30 W/m2
09:56 55 °F 53.6 °F 30 in NW 2.9 mph 8 mph 95% 0.01 in 33 W/m2
10:01 55 °F 53.6 °F 30 in Calm   6 mph 95% 0.01 in 40 W/m2
10:06 55 °F 53.6 °F 30 in West 6 mph 14 mph 95% 0.01 in 30 W/m2
10:11 55 °F 53.4 °F 30 in West 6.9 mph 9 mph 94% 0 in 23 W/m2
10:16 55.2 °F 53.6 °F 30 in NNW 2.9 mph 9 mph 94% 0 in 33 W/m2
10:21 55.2 °F 53.6 °F 30 in Calm   4 mph 94% 0 in 25 W/m2
10:26 55.2 °F 53.6 °F 30 in WSW 2.9 mph 9 mph 94% 0 in 21 W/m2
10:31 55.2 °F 53.6 °F 30 in WNW 2.9 mph 4 mph 94% 0 in 44 W/m2
10:36 55.4 °F 53.8 °F 30 in NNW 4 mph 10 mph 94% 0 in 60 W/m2
10:41 55.4 °F 53.8 °F 30 in West 0.9 mph 3 mph 94% 0 in 53 W/m2
10:46 55.4 °F 53.8 °F 30 in WSW 0.9 mph 10 mph 94% 0 in 70 W/m2
10:51 55.6 °F 54 °F 30 in Calm   9 mph 94% 0 in 32 W/m2
10:56 55.4 °F 53.8 °F 30 in NE 2.9 mph 3 mph 94% 0 in 49 W/m2
11:01 55.2 °F 53.6 °F 30 in East 2 mph 2 mph 94% 0 in 30 W/m2
11:06 55.2 °F 53.6 °F 30 in West 0.9 mph 9 mph 94% 0 in 21 W/m2
11:11 55.2 °F 53.8 °F 30 in West 0.9 mph 4 mph 95% 0 in 21 W/m2
11:16 55 °F 53.6 °F 30 in WNW 0.9 mph 6 mph 95% 0 in 23 W/m2
11:21 55 °F 53.6 °F 30 in WNW 4 mph 10 mph 95% 0 in 39 W/m2
11:26 55 °F 53.6 °F 30 in SSW 2 mph 7 mph 95% 0 in 47 W/m2
11:31 55 °F 53.6 °F 30 in NW 4 mph 10 mph 95% 0 in 39 W/m2
11:36 55 °F 53.6 °F 30 in NW 4.9 mph 7 mph 95% 0 in 49 W/m2
11:41 55 °F 53.6 °F 30 in WNW 2.9 mph 3 mph 95% 0.01 in 62 W/m2
11:46 55 °F 53.6 °F 30 in WNW 0.9 mph 7 mph 95% 0.01 in 54 W/m2
11:51 55.2 °F 53.8 °F 30 in SE 0.9 mph 7 mph 95% 0.01 in 53 W/m2
11:56 55.2 °F 53.8 °F 30 in WSW 2 mph 11 mph 95% 0.01 in 56 W/m2
12:01 55.2 °F 53.8 °F 30 in WSW 4 mph 8 mph 95% 0.01 in 67 W/m2
12:06 55.2 °F 53.8 °F 30 in SE 2.9 mph 11 mph 95% 0.02 in 65 W/m2
12:11 55.2 °F 53.8 °F 30 in Calm   4 mph 95% 0.02 in 60 W/m2
12:16 55.2 °F 53.8 °F 30 in SSW 0.9 mph 4 mph 95% 0.02 in 58 W/m2
12:21 55.2 °F 53.8 °F 30 in West 6 mph 7 mph 95% 0.02 in 44 W/m2
12:26 55.2 °F 53.8 °F 30 in Calm   5 mph 95% 0.02 in 33 W/m2
12:31 55.2 °F 53.8 °F 30 in North 2 mph 3 mph 95% 0.02 in 42 W/m2
12:36 55.2 °F 53.8 °F 30 in NW 4 mph 8 mph 95% 0.02 in 42 W/m2
12:41 55.2 °F 53.8 °F 30 in NW 2 mph 7 mph 95% 0.02 in 67 W/m2
12:46 55.2 °F 53.8 °F 30 in WNW 2.9 mph 4 mph 95% 0.02 in 65 W/m2
12:51 55.2 °F 53.8 °F 30 in WNW 0.9 mph 7 mph 95% 0.02 in 69 W/m2
12:56 55.4 °F 54 °F 30 in WNW 2 mph 3 mph 95% 0.02 in 65 W/m2
13:01 55.4 °F 54 °F 30 in West 2 mph 3 mph 95% 0.02 in 54 W/m2
13:06 55.4 °F 54 °F 30 in WNW 2 mph 7 mph 95% 0.02 in 53 W/m2
13:11 55.4 °F 54 °F 30 in WSW 4.9 mph 7 mph 95% 0.02 in 54 W/m2
13:16 55.6 °F 54.1 °F 30 in NNW 2.9 mph 6 mph 95% 0.02 in 63 W/m2
13:21 55.6 °F 54.1 °F 30 in SSW 6 mph 6 mph 95% 0.02 in 56 W/m2
13:26 55.6 °F 54.1 °F 30 in NW 4 mph 4 mph 95% 0.02 in 49 W/m2
13:31 55.6 °F 54.1 °F 30 in SSW 6 mph 12 mph 95% 0.02 in 53 W/m2
13:36 55.6 °F 54.1 °F 30 in NW 2 mph 4 mph 95% 0.02 in 47 W/m2
13:41 55.6 °F 54.1 °F 30 in WNW 2 mph 11 mph 95% 0.02 in 51 W/m2
13:46 55.8 °F 54.3 °F 30 in West 0.9 mph 3 mph 95% 0.01 in 70 W/m2
13:51 55.8 °F 54.3 °F 30 in SW 4 mph 6 mph 95% 0.01 in 56 W/m2
13:56 55.8 °F 54.3 °F 30 in WSW 2.9 mph 9 mph 95% 0.02 in 70 W/m2
14:01 55.9 °F 54.5 °F 30 in NW 6.9 mph 8 mph 95% 0.02 in 54 W/m2
14:06 55.9 °F 54.5 °F 30 in NW 6 mph 8 mph 95% 0.02 in 47 W/m2
14:11 55.9 °F 54.5 °F 30 in NW 2 mph 3 mph 95% 0.02 in 42 W/m2
14:16 55.9 °F 54.5 °F 30 in SSE 2.9 mph 5 mph 95% 0.02 in 37 W/m2
14:21 55.9 °F 54.5 °F 30 in South 2 mph 5 mph 95% 0.02 in 33 W/m2
14:26 55.9 °F 54.5 °F 30 in North 2 mph 3 mph 95% 0.02 in 33 W/m2
14:31 55.8 °F 54.3 °F 30 in NE 0.9 mph 8 mph 95% 0.02 in 42 W/m2
14:36 55.9 °F 54.9 °F 30 in NNW 2.9 mph 3 mph 96% 0.02 in 32 W/m2
14:41 55.9 °F 54.5 °F 30 in NNE 0.9 mph 5 mph 95% 0.02 in 26 W/m2
14:46 55.9 °F 54.9 °F 30 in NW 0.9 mph 10 mph 96% 0.02 in 25 W/m2
14:51 55.9 °F 54.9 °F 30 in North 2.9 mph 3 mph 96% 0.03 in 21 W/m2
14:56 55.9 °F 54.9 °F 30 in NW 0.9 mph 3 mph 96% 0.02 in 16 W/m2
15:01 55.9 °F 54.9 °F 30 in West 0.9 mph 11 mph 96% 0.02 in 16 W/m2
15:06 55.9 °F 54.9 °F 30 in WNW 2.9 mph 8 mph 96% 0.02 in 9 W/m2
15:11 55.9 °F 54.5 °F 30 in WSW 2.9 mph 11 mph 95% 0.02 in 12 W/m2
15:16 55.9 °F 54.5 °F 30 in Calm   3 mph 95% 0.02 in 18 W/m2
15:21 55.9 °F 54.5 °F 30 in SE 4 mph 7 mph 95% 0.02 in 18 W/m2
15:39 56.1 °F 54.7 °F 30 in North 2 mph 6 mph 95% 0.02 in 14 W/m2
15:44 56.1 °F 54.7 °F 30 in WSW 0.9 mph 7 mph 95% 0.02 in 16 W/m2
15:49 56.1 °F 54.7 °F 30 in SW 0.9 mph 3 mph 95% 0.02 in 19 W/m2
15:54 56.1 °F 54.7 °F 30 in NW 0.9 mph 4 mph 95% 0.03 in 16 W/m2
15:59 56.1 °F 54.7 °F 30 in West 6 mph 9 mph 95% 0.03 in 21 W/m2
16:04 56.1 °F 54.7 °F 30 in NNW 2.9 mph 8 mph 95% 0.03 in 12 W/m2
16:09 56.1 °F 54.7 °F 30 in WNW 2.9 mph 4 mph 95% 0.03 in 11 W/m2
16:14 56.1 °F 54.7 °F 30 in NW 0.9 mph 4 mph 95% 0.03 in 7 W/m2
16:19 56.1 °F 54.7 °F 30 in NE 0.9 mph 5 mph 95% 0.02 in 7 W/m2
16:24 56.1 °F 54.7 °F 30 in WSW 8.1 mph 10 mph 95% 0.03 in 5 W/m2
16:29 56.3 °F 54.9 °F 30 in SSW 0.9 mph 7 mph 95% 0.03 in 0 W/m2
16:34 56.3 °F 54.9 °F 30 in WSW 0.9 mph 3 mph 95% 0.03 in 0 W/m2
16:39 56.3 °F 54.9 °F 30 in WNW 2 mph 8 mph 95% 0.03 in 0 W/m2
16:44 56.5 °F 55 °F 30 in Calm   3 mph 95% 0.02 in 0 W/m2
16:49 56.5 °F 55 °F 30 in NW 0.9 mph 8 mph 95% 0.02 in 0 W/m2
16:54 56.3 °F 54.9 °F 30 in ENE 0.9 mph 2 mph 95% 0.02 in 0 W/m2
16:59 56.1 °F 54.7 °F 30 in Calm   3 mph 95% 0.02 in 0 W/m2
17:04 56.1 °F 54.7 °F 30 in SE 2 mph 6 mph 95% 0.02 in 0 W/m2
17:09 56.1 °F 54.7 °F 30 in WSW 2 mph 6 mph 95% 0.02 in 0 W/m2
17:14 56.1 °F 54.7 °F 30 in North 0.9 mph 3 mph 95% 0.02 in 0 W/m2
17:19 56.1 °F 54.7 °F 30 in East 0.9 mph 3 mph 95% 0.02 in 0 W/m2
17:24 56.1 °F 54.7 °F 30 in West 0.9 mph 4 mph 95% 0.02 in 0 W/m2
17:29 56.1 °F 54.7 °F 30 in NNW 6 mph 8 mph 95% 0.02 in 0 W/m2
17:34 56.3 °F 54.9 °F 30 in Calm   9 mph 95% 0.02 in 0 W/m2
17:39 56.3 °F 54.9 °F 30 in SSW 2.9 mph 12 mph 95% 0.02 in 0 W/m2
17:56 56.3 °F 54.9 °F 30 in WSW 2 mph 6 mph 95% 0.02 in 0 W/m2
18:01 56.3 °F 54.9 °F 30 in NNW 2 mph 3 mph 95% 0.01 in 0 W/m2
18:06 56.3 °F 54.9 °F 30 in Calm   6 mph 95% 0.01 in 0 W/m2
18:11 56.3 °F 54.9 °F 30 in NE 2.9 mph 12 mph 95% 0.02 in 0 W/m2
18:16 56.5 °F 55 °F 30 in Calm   3 mph 95% 0.02 in 0 W/m2
18:21 56.5 °F 55 °F 30 in North 2.9 mph 4 mph 95% 0.02 in 0 W/m2
18:26 56.5 °F 55 °F 30 in NW 4 mph 5 mph 95% 0.02 in 0 W/m2
18:31 56.5 °F 55 °F 30 in NNE 0.9 mph 3 mph 95% 0.02 in 0 W/m2
18:36 56.5 °F 55 °F 30 in Calm   2 mph 95% 0.02 in 0 W/m2
18:41 56.5 °F 55 °F 30 in WSW 0.9 mph 4 mph 95% 0.02 in 0 W/m2
18:46 56.5 °F 55 °F 30 in NW 2.9 mph 3 mph 95% 0.02 in 0 W/m2
18:51 56.3 °F 54.9 °F 30 in Calm     95% 0.02 in 0 W/m2
18:56 56.1 °F 54.7 °F 30 in North 0.9 mph 3 mph 95% 0.02 in 0 W/m2
19:01 56.1 °F 54.7 °F 30 in NNW 0.9 mph 3 mph 95% 0.02 in 0 W/m2
19:06 56.1 °F 54.7 °F 30 in West 2 mph 2 mph 95% 0.02 in 0 W/m2
19:11 56.1 °F 54.7 °F 30 in Calm   2 mph 95% 0.02 in 0 W/m2
19:16 56.1 °F 54.7 °F 30 in SSW 0.9 mph 6 mph 95% 0.02 in 0 W/m2
19:21 56.1 °F 54.7 °F 30 in West 2.9 mph 15 mph 95% 0.02 in 0 W/m2
19:26 56.3 °F 54.9 °F 30 in WNW 2 mph 8 mph 95% 0.03 in 0 W/m2
19:31 56.3 °F 54.9 °F 30 in SSW 0.9 mph 15 mph 95% 0.03 in 0 W/m2
19:36 56.5 °F 55 °F 30 in NW 2.9 mph 9 mph 95% 0.03 in 0 W/m2
19:41 56.5 °F 55 °F 30 in NNW 4 mph 11 mph 95% 0.03 in 0 W/m2
19:46 56.7 °F 55.2 °F 30 in West 4 mph 8 mph 95% 0.03 in 0 W/m2
19:51 56.7 °F 55 °F 30 in Calm   5 mph 94% 0.02 in 0 W/m2
19:56 56.5 °F 54.9 °F 30 in WSW 0.9 mph 9 mph 94% 0.02 in 0 W/m2
20:01 56.5 °F 54.9 °F 30 in North 0.9 mph 3 mph 94% 0.02 in 0 W/m2
20:06 56.5 °F 54.9 °F 30 in NW 4 mph 7 mph 94% 0.02 in 0 W/m2
20:11 56.5 °F 54.9 °F 30 in NE 2.9 mph 8 mph 94% 0.02 in 0 W/m2
20:16 56.5 °F 54.9 °F 30 in SSW 4 mph 8 mph 94% 0.02 in 0 W/m2
20:21 56.7 °F 55 °F 30 in West 2 mph 9 mph 94% 0.01 in 0 W/m2
20:26 56.7 °F 55 °F 30 in WNW 2 mph 8 mph 94% 0 in 0 W/m2
20:31 56.7 °F 55 °F 30 in SW 0.9 mph 5 mph 94% 0 in 0 W/m2
20:36 56.7 °F 55 °F 30 in NNW 2.9 mph 5 mph 94% 0 in 0 W/m2
20:41 56.7 °F 55 °F 30 in NNW 2 mph 4 mph 94% 0 in 0 W/m2
21:00 56.3 °F 54.7 °F 30 in WNW 4 mph 4 mph 94% 0 in 0 W/m2
21:06 56.3 °F 54.7 °F 30 in NW 2.9 mph 10 mph 94% 0 in 0 W/m2
21:11 56.3 °F 54.7 °F 30 in NW 0.9 mph 3 mph 94% 0 in 0 W/m2
21:16 56.5 °F 54.9 °F 30 in North 2 mph 10 mph 94% 0 in 0 W/m2
21:21 56.5 °F 54.9 °F 30 in West 6 mph 13 mph 94% 0 in 0 W/m2
21:26 56.5 °F 54.9 °F 30 in WSW 2.9 mph 9 mph 94% 0 in 0 W/m2
21:31 56.5 °F 54.9 °F 30 in NW 6 mph 13 mph 94% 0 in 0 W/m2
21:36 56.5 °F 54.9 °F 30 in WNW 0.9 mph 7 mph 94% 0 in 0 W/m2
21:41 56.5 °F 54.9 °F 30 in NNW 0.9 mph 9 mph 94% 0 in 0 W/m2
21:46 56.5 °F 54.9 °F 30 in NW 4 mph 8 mph 94% 0 in 0 W/m2
21:51 56.5 °F 54.9 °F 30 in WNW 6.9 mph 9 mph 94% 0 in 0 W/m2
21:56 56.5 °F 54.9 °F 30 in WNW 2.9 mph 5 mph 94% 0 in 0 W/m2
22:01 56.5 °F 54.9 °F 30 in ESE 6 mph 9 mph 94% 0 in 0 W/m2
22:06 56.5 °F 54.9 °F 30 in ESE 2 mph 3 mph 94% 0 in 0 W/m2
22:11 56.5 °F 54.9 °F 30 in NNW 2 mph 9 mph 94% 0 in 0 W/m2
22:16 56.3 °F 54.7 °F 30 in West 0.9 mph 4 mph 94% 0 in 0 W/m2
22:21 56.3 °F 54.9 °F 30 in Calm   3 mph 95% 0 in 0 W/m2
22:26 56.3 °F 54.9 °F 30 in SE 0.9 mph 3 mph 95% 0 in 0 W/m2
22:31 56.3 °F 54.9 °F 30 in West 2.9 mph 7 mph 95% 0 in 0 W/m2
22:36 56.5 °F 55 °F 30 in NW 4 mph 7 mph 95% 0 in 0 W/m2
22:41 56.5 °F 54.9 °F 30 in Calm   4 mph 94% 0 in 0 W/m2
22:46 56.5 °F 54.9 °F 30 in WNW 2 mph 2 mph 94% 0 in 0 W/m2
22:51 56.5 °F 54.9 °F 30 in Calm   1 mph 94% 0 in 0 W/m2
22:56 56.5 °F 54.9 °F 30 in Calm   8 mph 94% 0 in 0 W/m2
23:01 56.7 °F 55 °F 30 in ENE 2 mph 6 mph 94% 0 in 0 W/m2
23:06 56.7 °F 55 °F 30 in NNE 2 mph 8 mph 94% 0 in 0 W/m2
23:11 56.8 °F 55.2 °F 30 in NNE 4 mph 7 mph 94% 0 in 0 W/m2
23:16 56.8 °F 55.2 °F 30 in North 2 mph 3 mph 94% 0 in 0 W/m2
23:21 56.8 °F 55.2 °F 30 in West 0.9 mph 6 mph 94% 0 in 0 W/m2
23:26 56.8 °F 55.2 °F 30 in NW 4.9 mph 6 mph 94% 0 in 0 W/m2
23:31 57 °F 55 °F 30 in West 0.9 mph 11 mph 93% 0 in 0 W/m2
23:36 57 °F 55 °F 30 in WNW 2 mph 12 mph 93% 0 in 0 W/m2
23:41 57.2 °F 55.2 °F 30 in WSW 4 mph 4 mph 93% 0 in 0 W/m2
23:46 57.2 °F 54.9 °F 30 in ENE 0.9 mph 12 mph 92% 0 in 0 W/m2
23:51 57.2 °F 54.9 °F 30 in WNW 2.9 mph 6 mph 92% 0 in 0 W/m2
23:56 57.2 °F 54.9 °F 30 in ESE 4 mph 4 mph 92% 0 in 0 W/m2
Juneau County Weather
Compliments of Weather Underground - 4 mb